sensor_id;sensor_type;location;lat;lon;timestamp;pressure;altitude;pressure_sealevel;temperature;humidity
27729;BME280;15126;42.186;24.340;2023-01-25T00:00:01;100741.72;;;3.31;86.93
27729;BME280;15126;42.186;24.340;2023-01-25T00:02:31;100736.22;;;3.31;86.56
27729;BME280;15126;42.186;24.340;2023-01-25T00:04:58;100745.38;;;3.35;85.19
27729;BME280;15126;42.186;24.340;2023-01-25T00:07:24;100744.25;;;3.36;85.62
27729;BME280;15126;42.186;24.340;2023-01-25T00:09:51;100748.28;;;3.26;84.78
27729;BME280;15126;42.186;24.340;2023-01-25T00:12:18;100747.00;;;3.24;85.39
27729;BME280;15126;42.186;24.340;2023-01-25T00:14:45;100748.75;;;3.16;86.06
27729;BME280;15126;42.186;24.340;2023-01-25T00:17:11;100747.59;;;3.17;86.19
27729;BME280;15126;42.186;24.340;2023-01-25T00:19:40;100738.53;;;3.17;86.56
27729;BME280;15126;42.186;24.340;2023-01-25T00:22:06;100737.03;;;3.19;86.54
27729;BME280;15126;42.186;24.340;2023-01-25T00:24:33;100736.34;;;3.22;86.78
27729;BME280;15126;42.186;24.340;2023-01-25T00:27:01;100741.63;;;3.27;86.31
27729;BME280;15126;42.186;24.340;2023-01-25T00:29:28;100747.00;;;3.24;86.24
27729;BME280;15126;42.186;24.340;2023-01-25T00:32:01;100746.81;;;3.29;86.47
27729;BME280;15126;42.186;24.340;2023-01-25T00:34:47;100749.00;;;3.23;86.43
27729;BME280;15126;42.186;24.340;2023-01-25T00:37:38;100720.84;;;3.06;86.67
27729;BME280;15126;42.186;24.340;2023-01-25T00:40:07;100753.22;;;3.21;86.57
27729;BME280;15126;42.186;24.340;2023-01-25T00:42:34;100746.56;;;3.22;86.48
27729;BME280;15126;42.186;24.340;2023-01-25T00:45:01;100747.59;;;3.17;86.54
27729;BME280;15126;42.186;24.340;2023-01-25T00:47:28;100750.38;;;3.17;86.83
27729;BME280;15126;42.186;24.340;2023-01-25T00:49:56;100739.56;;;3.00;86.80
27729;BME280;15126;42.186;24.340;2023-01-25T00:52:23;100753.91;;;3.06;88.21
27729;BME280;15126;42.186;24.340;2023-01-25T00:54:51;100750.34;;;3.05;88.04
27729;BME280;15126;42.186;24.340;2023-01-25T00:57:18;100744.16;;;3.08;88.56
27729;BME280;15126;42.186;24.340;2023-01-25T00:59:45;100739.81;;;3.07;87.90
27729;BME280;15126;42.186;24.340;2023-01-25T01:02:12;100740.94;;;3.06;87.79
27729;BME280;15126;42.186;24.340;2023-01-25T01:04:39;100737.06;;;3.07;87.25
27729;BME280;15126;42.186;24.340;2023-01-25T01:07:07;100732.13;;;3.00;88.14
27729;BME280;15126;42.186;24.340;2023-01-25T01:09:34;100734.06;;;3.00;88.67
27729;BME280;15126;42.186;24.340;2023-01-25T01:12:00;100727.16;;;2.94;89.00
27729;BME280;15126;42.186;24.340;2023-01-25T01:14:27;100731.19;;;2.96;89.60
27729;BME280;15126;42.186;24.340;2023-01-25T01:16:54;100731.56;;;3.07;90.32
27729;BME280;15126;42.186;24.340;2023-01-25T01:19:21;100714.56;;;2.93;89.55
27729;BME280;15126;42.186;24.340;2023-01-25T01:21:48;100717.66;;;3.04;90.37
27729;BME280;15126;42.186;24.340;2023-01-25T01:24:16;100721.66;;;2.94;91.18
27729;BME280;15126;42.186;24.340;2023-01-25T01:26:44;100716.06;;;2.90;89.99
27729;BME280;15126;42.186;24.340;2023-01-25T01:29:11;100705.13;;;2.94;89.31
27729;BME280;15126;42.186;24.340;2023-01-25T01:31:38;100713.97;;;2.87;89.53
27729;BME280;15126;42.186;24.340;2023-01-25T01:34:05;100719.38;;;2.96;89.02
27729;BME280;15126;42.186;24.340;2023-01-25T01:36:32;100720.06;;;2.93;90.11
27729;BME280;15126;42.186;24.340;2023-01-25T01:38:58;100727.75;;;2.99;89.21
27729;BME280;15126;42.186;24.340;2023-01-25T01:41:27;100720.31;;;2.88;89.07
27729;BME280;15126;42.186;24.340;2023-01-25T01:43:54;100718.22;;;2.85;89.49
27729;BME280;15126;42.186;24.340;2023-01-25T01:46:24;100720.31;;;2.88;89.85
27729;BME280;15126;42.186;24.340;2023-01-25T01:48:55;100724.66;;;2.89;89.65
27729;BME280;15126;42.186;24.340;2023-01-25T01:51:27;100723.84;;;2.88;90.40
27729;BME280;15126;42.186;24.340;2023-01-25T01:54:02;100720.88;;;2.93;89.36
27729;BME280;15126;42.186;24.340;2023-01-25T01:56:37;100723.63;;;2.81;89.87
27729;BME280;15126;42.186;24.340;2023-01-25T01:59:06;100728.56;;;2.76;90.08
27729;BME280;15126;42.186;24.340;2023-01-25T02:01:34;100728.53;;;2.64;90.35
27729;BME280;15126;42.186;24.340;2023-01-25T02:04:02;100714.31;;;2.50;91.35
27729;BME280;15126;42.186;24.340;2023-01-25T02:06:35;100724.75;;;2.56;90.82
27729;BME280;15126;42.186;24.340;2023-01-25T02:09:06;100718.69;;;2.63;91.16
27729;BME280;15126;42.186;24.340;2023-01-25T02:11:34;100727.25;;;2.61;90.69
27729;BME280;15126;42.186;24.340;2023-01-25T02:14:02;100718.44;;;2.68;91.54
27729;BME280;15126;42.186;24.340;2023-01-25T02:16:29;100721.06;;;2.64;91.97
27729;BME280;15126;42.186;24.340;2023-01-25T02:18:57;100725.66;;;2.72;91.60
27729;BME280;15126;42.186;24.340;2023-01-25T02:21:30;100719.00;;;2.61;92.21
27729;BME280;15126;42.186;24.340;2023-01-25T02:24:03;100720.75;;;2.66;92.08
27729;BME280;15126;42.186;24.340;2023-01-25T02:26:33;100716.41;;;2.77;92.58
27729;BME280;15126;42.186;24.340;2023-01-25T02:29:02;100717.63;;;2.67;92.92
27729;BME280;15126;42.186;24.340;2023-01-25T02:31:29;100712.59;;;2.69;93.79
27729;BME280;15126;42.186;24.340;2023-01-25T02:33:56;100722.34;;;2.79;92.99
27729;BME280;15126;42.186;24.340;2023-01-25T02:36:24;100720.50;;;2.83;93.74
27729;BME280;15126;42.186;24.340;2023-01-25T02:38:54;100725.34;;;2.86;93.58
27729;BME280;15126;42.186;24.340;2023-01-25T02:41:26;100720.63;;;2.86;93.62
27729;BME280;15126;42.186;24.340;2023-01-25T02:43:54;100715.34;;;2.81;93.61
27729;BME280;15126;42.186;24.340;2023-01-25T02:46:23;100725.22;;;2.94;93.69
27729;BME280;15126;42.186;24.340;2023-01-25T02:48:52;100721.78;;;2.97;93.59
27729;BME280;15126;42.186;24.340;2023-01-25T02:51:20;100716.63;;;2.84;93.29
27729;BME280;15126;42.186;24.340;2023-01-25T02:53:47;100725.13;;;2.79;94.02
27729;BME280;15126;42.186;24.340;2023-01-25T02:56:15;100729.13;;;2.81;94.48
27729;BME280;15126;42.186;24.340;2023-01-25T02:58:42;100730.03;;;2.85;94.48
27729;BME280;15126;42.186;24.340;2023-01-25T03:01:11;100728.09;;;2.86;94.96
27729;BME280;15126;42.186;24.340;2023-01-25T03:03:38;100720.75;;;2.90;94.77
27729;BME280;15126;42.186;24.340;2023-01-25T03:06:05;100734.66;;;2.93;94.60
27729;BME280;15126;42.186;24.340;2023-01-25T03:08:33;100726.38;;;2.93;94.82
27729;BME280;15126;42.186;24.340;2023-01-25T03:11:01;100725.22;;;2.70;94.62
27729;BME280;15126;42.186;24.340;2023-01-25T03:13:29;100729.00;;;2.78;94.85
27729;BME280;15126;42.186;24.340;2023-01-25T03:15:58;100726.25;;;2.78;94.16
27729;BME280;15126;42.186;24.340;2023-01-25T03:18:27;100717.88;;;2.74;94.64
27729;BME280;15126;42.186;24.340;2023-01-25T03:20:54;100721.78;;;2.73;93.95
27729;BME280;15126;42.186;24.340;2023-01-25T03:23:21;100725.34;;;2.74;93.42
27729;BME280;15126;42.186;24.340;2023-01-25T03:25:48;100731.31;;;2.76;93.69
27729;BME280;15126;42.186;24.340;2023-01-25T03:28:14;100727.28;;;2.73;93.31
27729;BME280;15126;42.186;24.340;2023-01-25T03:30:41;100729.50;;;2.80;93.67
27729;BME280;15126;42.186;24.340;2023-01-25T03:33:08;100730.03;;;2.85;93.82
27729;BME280;15126;42.186;24.340;2023-01-25T03:35:36;100732.34;;;2.71;94.02
27729;BME280;15126;42.186;24.340;2023-01-25T03:38:03;100728.19;;;2.77;93.57
27729;BME280;15126;42.186;24.340;2023-01-25T03:40:30;100726.59;;;2.76;93.35
27729;BME280;15126;42.186;24.340;2023-01-25T03:42:56;100731.75;;;2.78;93.32
27729;BME280;15126;42.186;24.340;2023-01-25T03:45:23;100717.75;;;2.71;93.28
27729;BME280;15126;42.186;24.340;2023-01-25T03:47:50;100710.53;;;2.66;93.52
27729;BME280;15126;42.186;24.340;2023-01-25T03:50:17;100724.09;;;2.71;92.93
27729;BME280;15126;42.186;24.340;2023-01-25T03:52:58;100720.28;;;2.76;92.90
27729;BME280;15126;42.186;24.340;2023-01-25T03:55:39;100718.56;;;2.83;92.97
27729;BME280;15126;42.186;24.340;2023-01-25T03:58:05;100724.88;;;2.72;93.87
27729;BME280;15126;42.186;24.340;2023-01-25T04:00:32;100725.56;;;2.69;93.80
27729;BME280;15126;42.186;24.340;2023-01-25T04:02:59;100724.31;;;2.66;93.45
27729;BME280;15126;42.186;24.340;2023-01-25T04:05:26;100731.75;;;2.66;93.10
27729;BME280;15126;42.186;24.340;2023-01-25T04:07:54;100726.47;;;2.73;93.07
27729;BME280;15126;42.186;24.340;2023-01-25T04:10:21;100730.38;;;2.72;92.84
27729;BME280;15126;42.186;24.340;2023-01-25T04:12:47;100727.84;;;2.67;93.08
27729;BME280;15126;42.186;24.340;2023-01-25T04:15:14;100727.63;;;2.60;93.05
27729;BME280;15126;42.186;24.340;2023-01-25T04:17:41;100727.84;;;2.67;92.80
27729;BME280;15126;42.186;24.340;2023-01-25T04:20:09;100724.53;;;2.73;93.00
27729;BME280;15126;42.186;24.340;2023-01-25T04:22:36;100728.09;;;2.74;92.79
27729;BME280;15126;42.186;24.340;2023-01-25T04:25:05;100692.72;;;2.52;92.54
27729;BME280;15126;42.186;24.340;2023-01-25T04:27:33;100727.75;;;2.75;92.30
27729;BME280;15126;42.186;24.340;2023-01-25T04:30:00;100722.81;;;2.81;92.12
27729;BME280;15126;42.186;24.340;2023-01-25T04:32:26;100721.91;;;2.77;92.04
27729;BME280;15126;42.186;24.340;2023-01-25T04:34:53;100726.25;;;2.78;92.04
27729;BME280;15126;42.186;24.340;2023-01-25T04:37:20;100727.63;;;2.72;91.79
27729;BME280;15126;42.186;24.340;2023-01-25T04:39:47;100726.94;;;2.75;92.72
27729;BME280;15126;42.186;24.340;2023-01-25T04:42:15;100728.91;;;2.74;93.14
27729;BME280;15126;42.186;24.340;2023-01-25T04:44:41;100728.53;;;2.64;93.11
27729;BME280;15126;42.186;24.340;2023-01-25T04:47:08;100729.78;;;2.54;93.07
27729;BME280;15126;42.186;24.340;2023-01-25T04:49:35;100731.38;;;2.43;94.10
27729;BME280;15126;42.186;24.340;2023-01-25T04:52:02;100734.69;;;2.36;94.93
27729;BME280;15126;42.186;24.340;2023-01-25T04:54:29;100730.78;;;2.37;95.56
27729;BME280;15126;42.186;24.340;2023-01-25T04:56:56;100730.47;;;2.39;96.36
27729;BME280;15126;42.186;24.340;2023-01-25T04:59:24;100733.00;;;2.44;95.44
27729;BME280;15126;42.186;24.340;2023-01-25T05:01:50;100709.44;;;2.22;95.95
27729;BME280;15126;42.186;24.340;2023-01-25T05:04:17;100740.66;;;2.51;96.63
27729;BME280;15126;42.186;24.340;2023-01-25T05:06:44;100744.38;;;2.55;95.74
27729;BME280;15126;42.186;24.340;2023-01-25T05:09:11;100740.34;;;2.64;95.63
27729;BME280;15126;42.186;24.340;2023-01-25T05:11:37;100735.88;;;2.60;95.33
27729;BME280;15126;42.186;24.340;2023-01-25T05:14:04;100739.81;;;2.71;94.66
27729;BME280;15126;42.186;24.340;2023-01-25T05:16:32;100732.00;;;2.73;94.73
27729;BME280;15126;42.186;24.340;2023-01-25T05:18:59;100743.59;;;2.78;94.70
27729;BME280;15126;42.186;24.340;2023-01-25T05:21:26;100733.03;;;2.80;93.96
27729;BME280;15126;42.186;24.340;2023-01-25T05:24:10;100745.06;;;2.76;94.21
27729;BME280;15126;42.186;24.340;2023-01-25T05:26:37;100744.25;;;2.75;93.06
27729;BME280;15126;42.186;24.340;2023-01-25T05:29:21;100739.91;;;2.62;93.41
27729;BME280;15126;42.186;24.340;2023-01-25T05:31:49;100742.19;;;2.60;94.92
27729;BME280;15126;42.186;24.340;2023-01-25T05:34:16;100753.53;;;2.59;94.27
27729;BME280;15126;42.186;24.340;2023-01-25T05:36:42;100753.31;;;2.52;94.73
27729;BME280;15126;42.186;24.340;2023-01-25T05:39:09;100756.97;;;2.56;94.85
27729;BME280;15126;42.186;24.340;2023-01-25T05:41:36;100754.94;;;2.53;94.87
27729;BME280;15126;42.186;24.340;2023-01-25T05:44:03;100754.66;;;2.33;94.96
27729;BME280;15126;42.186;24.340;2023-01-25T05:46:30;100758.31;;;2.37;95.00
27729;BME280;15126;42.186;24.340;2023-01-25T05:48:58;100759.94;;;2.38;95.65
27729;BME280;15126;42.186;24.340;2023-01-25T05:51:25;100758.66;;;2.36;95.98
27729;BME280;15126;42.186;24.340;2023-01-25T05:53:53;100762.69;;;2.38;96.12
27729;BME280;15126;42.186;24.340;2023-01-25T05:56:20;100753.28;;;2.39;96.43
27729;BME280;15126;42.186;24.340;2023-01-25T05:58:51;100755.34;;;2.42;96.93
27729;BME280;15126;42.186;24.340;2023-01-25T06:01:18;100760.38;;;2.40;96.30
27729;BME280;15126;42.186;24.340;2023-01-25T06:03:45;100758.59;;;2.45;95.40
27729;BME280;15126;42.186;24.340;2023-01-25T06:06:14;100754.66;;;2.33;95.53
27729;BME280;15126;42.186;24.340;2023-01-25T06:08:40;100756.69;;;2.36;96.49
27729;BME280;15126;42.186;24.340;2023-01-25T06:11:08;100754.66;;;2.46;97.03
27729;BME280;15126;42.186;24.340;2023-01-25T06:13:34;100745.81;;;2.40;95.79
27729;BME280;15126;42.186;24.340;2023-01-25T06:16:01;100717.91;;;2.17;95.98
27729;BME280;15126;42.186;24.340;2023-01-25T06:18:29;100757.28;;;2.42;96.04
27729;BME280;15126;42.186;24.340;2023-01-25T06:20:56;100759.59;;;2.40;96.39
27729;BME280;15126;42.186;24.340;2023-01-25T06:23:25;100755.94;;;2.48;96.22
27729;BME280;15126;42.186;24.340;2023-01-25T06:25:56;100755.72;;;2.53;96.32
27729;BME280;15126;42.186;24.340;2023-01-25T06:28:23;100753.09;;;2.57;95.63
27729;BME280;15126;42.186;24.340;2023-01-25T06:30:50;100756.78;;;2.61;94.94
27729;BME280;15126;42.186;24.340;2023-01-25T06:33:16;100757.22;;;2.63;95.11
27729;BME280;15126;42.186;24.340;2023-01-25T06:35:43;100732.63;;;2.33;94.56
27729;BME280;15126;42.186;24.340;2023-01-25T06:38:10;100755.47;;;2.46;94.29
27729;BME280;15126;42.186;24.340;2023-01-25T06:40:38;100752.38;;;2.48;95.19
27729;BME280;15126;42.186;24.340;2023-01-25T06:43:05;100745.28;;;2.47;94.54
27729;BME280;15126;42.186;24.340;2023-01-25T06:45:32;100743.88;;;2.40;94.21
27729;BME280;15126;42.186;24.340;2023-01-25T06:47:59;100751.47;;;2.44;94.81
27729;BME280;15126;42.186;24.340;2023-01-25T06:50:26;100760.84;;;2.42;94.45
27729;BME280;15126;42.186;24.340;2023-01-25T06:52:53;100731.91;;;2.24;94.24
27729;BME280;15126;42.186;24.340;2023-01-25T06:55:21;100758.09;;;2.42;92.43
27729;BME280;15126;42.186;24.340;2023-01-25T06:57:49;100755.47;;;2.46;92.08
27729;BME280;15126;42.186;24.340;2023-01-25T07:00:17;100756.28;;;2.47;93.45
27729;BME280;15126;42.186;24.340;2023-01-25T07:02:43;100755.47;;;2.46;94.41
27729;BME280;15126;42.186;24.340;2023-01-25T07:05:10;100764.31;;;2.52;92.55
27729;BME280;15126;42.186;24.340;2023-01-25T07:07:37;100759.63;;;2.52;89.85
27729;BME280;15126;42.186;24.340;2023-01-25T07:10:04;100752.94;;;2.41;88.20
27729;BME280;15126;42.186;24.340;2023-01-25T07:12:31;100760.63;;;2.35;86.18
27729;BME280;15126;42.186;24.340;2023-01-25T07:14:59;100768.09;;;2.47;86.14
27729;BME280;15126;42.186;24.340;2023-01-25T07:17:26;100773.13;;;2.45;84.45
27729;BME280;15126;42.186;24.340;2023-01-25T07:19:53;100777.41;;;2.55;85.67
27729;BME280;15126;42.186;24.340;2023-01-25T07:22:19;100771.44;;;2.53;87.16
27729;BME280;15126;42.186;24.340;2023-01-25T07:24:46;100771.31;;;2.49;83.97
27729;BME280;15126;42.186;24.340;2023-01-25T07:27:16;100770.50;;;2.49;83.98
27729;BME280;15126;42.186;24.340;2023-01-25T07:29:43;100769.03;;;2.51;83.97
27729;BME280;15126;42.186;24.340;2023-01-25T07:32:12;100762.16;;;2.57;83.73
27729;BME280;15126;42.186;24.340;2023-01-25T07:34:39;100766.84;;;2.57;83.82
27729;BME280;15126;42.186;24.340;2023-01-25T07:37:06;100782.47;;;2.53;83.56
27729;BME280;15126;42.186;24.340;2023-01-25T07:39:33;100765.34;;;2.47;84.04
27729;BME280;15126;42.186;24.340;2023-01-25T07:42:00;100778.81;;;2.61;82.92
27729;BME280;15126;42.186;24.340;2023-01-25T07:44:27;100771.81;;;2.63;84.13
27729;BME280;15126;42.186;24.340;2023-01-25T07:46:54;100776.06;;;2.61;83.17
27729;BME280;15126;42.186;24.340;2023-01-25T07:49:22;100776.50;;;2.63;82.60
27729;BME280;15126;42.186;24.340;2023-01-25T07:51:49;100787.84;;;2.61;82.56
27729;BME280;15126;42.186;24.340;2023-01-25T07:54:15;100781.88;;;2.59;82.37
27729;BME280;15126;42.186;24.340;2023-01-25T07:56:42;100779.81;;;2.56;83.79
27729;BME280;15126;42.186;24.340;2023-01-25T07:59:09;100778.00;;;2.60;83.37
27729;BME280;15126;42.186;24.340;2023-01-25T08:01:37;100781.88;;;2.59;83.20
27729;BME280;15126;42.186;24.340;2023-01-25T08:04:04;100789.81;;;2.61;82.58
27729;BME280;15126;42.186;24.340;2023-01-25T08:06:35;100778.44;;;2.62;83.36
27729;BME280;15126;42.186;24.340;2023-01-25T08:09:05;100787.28;;;2.68;82.10
27729;BME280;15126;42.186;24.340;2023-01-25T08:11:33;100794.44;;;2.69;82.83
27729;BME280;15126;42.186;24.340;2023-01-25T08:14:00;100780.44;;;2.74;83.45
27729;BME280;15126;42.186;24.340;2023-01-25T08:16:29;100775.25;;;2.72;82.25
27729;BME280;15126;42.186;24.340;2023-01-25T08:18:57;100778.94;;;2.76;82.45
27729;BME280;15126;42.186;24.340;2023-01-25T08:21:25;100792.25;;;2.74;82.57
27729;BME280;15126;42.186;24.340;2023-01-25T08:23:56;100793.75;;;2.84;81.47
27729;BME280;15126;42.186;24.340;2023-01-25T08:26:23;100778.84;;;2.85;81.89
27729;BME280;15126;42.186;24.340;2023-01-25T08:28:50;100785.13;;;2.85;82.18
27729;BME280;15126;42.186;24.340;2023-01-25T08:31:21;100787.88;;;2.73;84.29
27729;BME280;15126;42.186;24.340;2023-01-25T08:33:48;100771.53;;;2.56;83.27
27729;BME280;15126;42.186;24.340;2023-01-25T08:36:16;100781.78;;;2.68;82.81
27729;BME280;15126;42.186;24.340;2023-01-25T08:38:43;100779.50;;;2.70;84.40
27729;BME280;15126;42.186;24.340;2023-01-25T08:41:13;100779.06;;;2.80;83.92
27729;BME280;15126;42.186;24.340;2023-01-25T08:43:40;100777.91;;;2.69;83.55
27729;BME280;15126;42.186;24.340;2023-01-25T08:46:07;100745.94;;;2.44;83.55
27729;BME280;15126;42.186;24.340;2023-01-25T08:48:34;100777.44;;;2.79;84.34
27729;BME280;15126;42.186;24.340;2023-01-25T08:51:02;100784.34;;;2.85;84.70
27729;BME280;15126;42.186;24.340;2023-01-25T08:53:30;100775.81;;;2.78;83.77
27729;BME280;15126;42.186;24.340;2023-01-25T08:56:02;100780.09;;;2.87;82.71
27729;BME280;15126;42.186;24.340;2023-01-25T08:58:31;100774.47;;;2.96;83.31
27729;BME280;15126;42.186;24.340;2023-01-25T09:01:06;100751.03;;;2.78;83.65
27729;BME280;15126;42.186;24.340;2023-01-25T09:03:39;100758.38;;;2.86;83.79
27729;BME280;15126;42.186;24.340;2023-01-25T09:06:06;100766.00;;;3.01;83.40
27729;BME280;15126;42.186;24.340;2023-01-25T09:08:34;100772.75;;;3.16;82.82
27729;BME280;15126;42.186;24.340;2023-01-25T09:11:03;100773.78;;;3.23;81.62
27729;BME280;15126;42.186;24.340;2023-01-25T09:13:31;100766.44;;;3.27;82.94
27729;BME280;15126;42.186;24.340;2023-01-25T09:15:59;100755.84;;;3.41;83.40
27729;BME280;15126;42.186;24.340;2023-01-25T09:18:28;100758.28;;;3.31;80.33
27729;BME280;15126;42.186;24.340;2023-01-25T09:20:56;100755.28;;;3.24;79.77
27729;BME280;15126;42.186;24.340;2023-01-25T09:23:23;100764.34;;;3.24;80.24
27729;BME280;15126;42.186;24.340;2023-01-25T09:25:55;100748.06;;;3.19;80.86
27729;BME280;15126;42.186;24.340;2023-01-25T09:28:23;100746.66;;;3.37;81.71
27729;BME280;15126;42.186;24.340;2023-01-25T09:30:55;100735.97;;;3.24;80.74
27729;BME280;15126;42.186;24.340;2023-01-25T09:33:24;100739.44;;;3.21;80.59
27729;BME280;15126;42.186;24.340;2023-01-25T09:35:51;100735.41;;;3.30;81.07
27729;BME280;15126;42.186;24.340;2023-01-25T09:38:18;100729.09;;;3.30;79.72
27729;BME280;15126;42.186;24.340;2023-01-25T09:40:54;100727.16;;;3.18;80.20
27729;BME280;15126;42.186;24.340;2023-01-25T09:43:30;100712.66;;;3.33;80.75
27729;BME280;15126;42.186;24.340;2023-01-25T09:46:10;100714.00;;;3.51;81.08
27729;BME280;15126;42.186;24.340;2023-01-25T09:48:46;100710.22;;;3.56;80.95
27729;BME280;15126;42.186;24.340;2023-01-25T09:51:24;100693.56;;;3.52;79.87
27729;BME280;15126;42.186;24.340;2023-01-25T09:53:53;100712.16;;;3.55;79.01
27729;BME280;15126;42.186;24.340;2023-01-25T09:56:24;100712.09;;;3.68;79.60
27729;BME280;15126;42.186;24.340;2023-01-25T09:58:56;100711.66;;;3.66;78.34
27729;BME280;15126;42.186;24.340;2023-01-25T10:01:28;100694.00;;;3.54;81.53
27729;BME280;15126;42.186;24.340;2023-01-25T10:04:01;100682.28;;;3.45;79.02
27729;BME280;15126;42.186;24.340;2023-01-25T10:06:38;100694.81;;;3.43;78.53
27729;BME280;15126;42.186;24.340;2023-01-25T10:09:18;100683.91;;;3.46;79.85
27729;BME280;15126;42.186;24.340;2023-01-25T10:11:49;100689.88;;;3.48;78.14
27729;BME280;15126;42.186;24.340;2023-01-25T10:14:18;100685.72;;;3.54;77.66
27729;BME280;15126;42.186;24.340;2023-01-25T10:16:57;100680.09;;;3.51;77.71
27729;BME280;15126;42.186;24.340;2023-01-25T10:19:34;100675.06;;;3.41;77.95
27729;BME280;15126;42.186;24.340;2023-01-25T10:22:09;100655.03;;;3.28;77.90
27729;BME280;15126;42.186;24.340;2023-01-25T10:24:56;100667.06;;;3.36;80.04
27729;BME280;15126;42.186;24.340;2023-01-25T10:27:33;100659.94;;;3.35;80.21
27729;BME280;15126;42.186;24.340;2023-01-25T10:30:15;100663.53;;;3.51;78.69
27729;BME280;15126;42.186;24.340;2023-01-25T10:32:48;100652.13;;;3.65;78.28
27729;BME280;15126;42.186;24.340;2023-01-25T10:35:18;100644.09;;;3.59;79.52
27729;BME280;15126;42.186;24.340;2023-01-25T10:37:47;100647.13;;;3.54;77.92
27729;BME280;15126;42.186;24.340;2023-01-25T10:40:18;100642.28;;;3.51;76.98
27729;BME280;15126;42.186;24.340;2023-01-25T10:42:50;100638.72;;;3.51;78.68
27729;BME280;15126;42.186;24.340;2023-01-25T10:45:20;100640.19;;;3.33;77.98
27729;BME280;15126;42.186;24.340;2023-01-25T10:47:51;100644.19;;;3.35;77.79
27729;BME280;15126;42.186;24.340;2023-01-25T10:50:46;100629.16;;;3.33;77.80
27729;BME280;15126;42.186;24.340;2023-01-25T10:53:25;100639.59;;;3.39;78.66
27729;BME280;15126;42.186;24.340;2023-01-25T10:55:59;100611.19;;;3.11;77.32
27729;BME280;15126;42.186;24.340;2023-01-25T10:58:32;100622.63;;;3.25;78.60
27729;BME280;15126;42.186;24.340;2023-01-25T11:00:59;100611.72;;;3.29;79.69
27729;BME280;15126;42.186;24.340;2023-01-25T11:03:35;100609.50;;;3.34;78.84
27729;BME280;15126;42.186;24.340;2023-01-25T11:06:03;100611.31;;;3.42;79.14
27729;BME280;15126;42.186;24.340;2023-01-25T11:08:35;100611.84;;;3.48;78.42
27729;BME280;15126;42.186;24.340;2023-01-25T11:11:14;100596.59;;;3.50;77.81
27729;BME280;15126;42.186;24.340;2023-01-25T11:13:48;100602.59;;;3.40;77.65
27729;BME280;15126;42.186;24.340;2023-01-25T11:16:26;100594.31;;;3.40;79.01
27729;BME280;15126;42.186;24.340;2023-01-25T11:18:57;100584.75;;;3.50;78.98
27729;BME280;15126;42.186;24.340;2023-01-25T11:21:26;100592.88;;;3.58;78.71
27729;BME280;15126;42.186;24.340;2023-01-25T11:24:14;100590.47;;;3.73;77.93
27729;BME280;15126;42.186;24.340;2023-01-25T11:26:42;100557.03;;;3.58;77.12
27729;BME280;15126;42.186;24.340;2023-01-25T11:29:14;100581.22;;;3.81;76.29
27729;BME280;15126;42.186;24.340;2023-01-25T11:31:43;100586.41;;;3.82;76.01
27729;BME280;15126;42.186;24.340;2023-01-25T11:34:13;100566.28;;;3.82;77.35
27729;BME280;15126;42.186;24.340;2023-01-25T11:36:56;100578.56;;;3.84;76.67
27729;BME280;15126;42.186;24.340;2023-01-25T11:39:40;100572.94;;;3.81;76.75
27729;BME280;15126;42.186;24.340;2023-01-25T11:42:19;100548.38;;;3.76;77.70
27729;BME280;15126;42.186;24.340;2023-01-25T11:45:07;100570.72;;;3.86;76.46
27729;BME280;15126;42.186;24.340;2023-01-25T11:47:48;100573.69;;;3.78;76.03
27729;BME280;15126;42.186;24.340;2023-01-25T11:50:25;100563.00;;;3.76;76.40
27729;BME280;15126;42.186;24.340;2023-01-25T11:53:25;100540.47;;;3.90;75.94
27729;BME280;15126;42.186;24.340;2023-01-25T11:56:03;100544.22;;;3.82;75.96
27729;BME280;15126;42.186;24.340;2023-01-25T11:58:45;100552.66;;;3.89;76.16
27729;BME280;15126;42.186;24.340;2023-01-25T12:01:22;100563.25;;;3.87;76.56
27729;BME280;15126;42.186;24.340;2023-01-25T12:04:18;100548.75;;;3.90;75.85
27729;BME280;15126;42.186;24.340;2023-01-25T12:06:57;100541.28;;;3.90;76.70
27729;BME280;15126;42.186;24.340;2023-01-25T12:09:34;100537.72;;;3.90;76.33
27729;BME280;15126;42.186;24.340;2023-01-25T12:12:09;100538.25;;;3.80;74.21
27729;BME280;15126;42.186;24.340;2023-01-25T12:14:53;100525.94;;;3.61;74.67
27729;BME280;15126;42.186;24.340;2023-01-25T12:17:41;100519.13;;;3.55;75.51
27729;BME280;15126;42.186;24.340;2023-01-25T12:20:37;100522.75;;;3.59;76.34
27729;BME280;15126;42.186;24.340;2023-01-25T12:23:30;100523.19;;;3.61;76.25
27729;BME280;15126;42.186;24.340;2023-01-25T12:26:11;100528.00;;;3.65;76.49
27729;BME280;15126;42.186;24.340;2023-01-25T12:28:42;100515.72;;;3.62;75.46
27729;BME280;15126;42.186;24.340;2023-01-25T12:31:13;100520.78;;;3.44;75.48
27729;BME280;15126;42.186;24.340;2023-01-25T12:33:46;100516.84;;;3.45;74.83
27729;BME280;15126;42.186;24.340;2023-01-25T12:36:19;100512.50;;;3.44;75.96
27729;BME280;15126;42.186;24.340;2023-01-25T12:38:54;100515.28;;;3.44;76.03
27729;BME280;15126;42.186;24.340;2023-01-25T12:41:29;100505.81;;;3.45;77.47
27729;BME280;15126;42.186;24.340;2023-01-25T12:44:04;100502.19;;;3.57;77.01
27729;BME280;15126;42.186;24.340;2023-01-25T12:46:37;100498.84;;;3.64;78.16
27729;BME280;15126;42.186;24.340;2023-01-25T12:49:13;100502.38;;;3.48;76.26
27729;BME280;15126;42.186;24.340;2023-01-25T12:51:41;100498.03;;;3.47;76.59
27729;BME280;15126;42.186;24.340;2023-01-25T12:54:17;100498.72;;;3.60;77.24
27729;BME280;15126;42.186;24.340;2023-01-25T12:56:53;100505.50;;;3.63;76.65
27729;BME280;15126;42.186;24.340;2023-01-25T12:59:29;100501.13;;;3.61;75.14
27729;BME280;15126;42.186;24.340;2023-01-25T13:02:08;100506.19;;;3.59;74.72
27729;BME280;15126;42.186;24.340;2023-01-25T13:04:52;100496.25;;;3.71;75.38